Coleshill, United Kingdom
Current Conditions -  °F | °C
As of 2:20 PM on Tuesday 27 Jan 2015 (Local Time) from EGBB Reporting Station
Broken Clouds Broken Clouds  
Wind Chill: 42°   Ceiling: 2400
Heat Index: 46°   Visibility: 6mi
Dew Point: 37°   Wind: 8mph
Humidity: 71%   Direction: 280°W
Pressure: 30.27"   Gusts: NA
Location:  52.5°N, 1.71°W
Report Text: EGBB 271420Z 28007KT 9999 BKN024 08/03 Q1025
Loading
Personal Weather Stations






























Interactive Weather Map New forecast layout! Learn more

10-Day Weather Forecast

Advertisements
Track Severe Weather on mobile